Accueil
METAR-TAF:

METAR-TAF

Aéroports :

Grande Canarie, Espagne

Aéroport de Gran Canaria

latitude: 27-56N, longitude: 015-23W, altitude: 23 m

Observation

Le bulletin a été fait il y a 18 minutes, à 04:30 UTC
Vent 9 kt de nord
Température 22°C
Humidité 83%
Pression 1021 hPa
Visibilité 10 km ou plus
Quelques nuages à une hauteur de 2500 ft
Nuages fragmentés à une hauteur de 5000 ft

METAR: GCLP 220430Z 01009KT 9999 FEW025 BKN050 22/19 Q1021 NOSIG

Heure: 05:48 (04:48 UTC)

Prévision

Le bulletin a été fait il y a 2 heures et 48 minutes, à 02:00 UTC
Prévision valable du 22 à 03 UTC au 23 à 03 UTC
Vent 14 kt de nord/nord-est
Visibilité 10 km ou plus
Nuages épars à une hauteur de 4000 ft
Probabilité 40% :
Temporairement
du 22 à 03 UTC au 22 à 14 UTC
bruine

TAF: GCLP 220200Z 2203/2303 02014KT 9999 SCT040 TX26/2213Z TN21/2206Z PROB40 TEMPO 2203/2214 DZ

Observations et prévisions météorologiques de plus de 4000 aéroports (messages METAR et TAF).

Les stations disponibles sont représentées par des disques jaunes et rouges sur la carte.

Passer la souris dessus pour voir le nom de la station.

Cliquer dessus pour voir les observations et prévisions météorologiques.

Pour changer de carte: cliquez sur les boutons verts avec une croix noire pour zoomer, sur le bouton vert avec un tiret pour effectuer un zoom arrière, ou sur les flèches vertes pour les cartes adjacentes.


METAR-TAF: